MiSS Sarah — WDE9595 — position and weather

sailwx.info

Track history (hours):
 
Tides and Currents Weather Stations Pressure Air Temp Water Temp Dewpoint Dewpoint Depression Visibility Wind Speed Wind Dir Waves Ship Positions

MiSS Sarah

Owner: Higman Barge Lines, Inc, Orange, TX. More information available from US FCC via Universal Licensing System and Coast Guard Vessel Documentation Center.

Last reported at 2015-Sep-02 22:23 UTC. Time now 2015-Sep-03 08:52 UTC.
Position N 29°46' W 095°06'.

Length 24 m; draft 9 m.

Type: Towing. MMSI: 367419040.

Date/timePositionNaut miles runAvg speedWind from/ knotsBaromVisibWave heightAir tempDewpointWater temp
2015-Sep-02 22:23N 29°46' W 095°06'1 0.0
2015-Sep-02 06:05N 29°46' W 095°07'1 1.9
2015-Sep-02 05:33N 29°46' W 095°06'1 1.1
2015-Sep-02 04:33N 29°46' W 095°05'0 0.0
2015-Sep-02 03:33N 29°46' W 095°05'0 0.0
2015-Sep-02 02:33N 29°46' W 095°05'0 0.0
2015-Sep-02 01:33N 29°46' W 095°05'1 1.1
2015-Sep-02 00:29N 29°46' W 095°06'4 3.8
2015-Sep-01 23:32N 29°45' W 095°10'4 3.2
2015-Sep-01 22:24N 29°44' W 095°14'6 6.5
2015-Sep-01 21:31N 29°44' W 095°07'3 3.1
2015-Sep-01 20:33N 29°46' W 095°05'0 0.0
2015-Sep-01 19:27N 29°46' W 095°05'2 2.3
2015-Sep-01 18:32N 29°45' W 095°06'2 2.1
2015-Sep-01 17:33N 29°46' W 095°05'0 0.1
2015-Sep-01 16:33N 29°46' W 095°05'0 0.0
2015-Sep-01 15:33N 29°46' W 095°05'0 0.1
2015-Sep-01 13:28N 29°46' W 095°05'2 2.5
2015-Sep-01 12:33N 29°45' W 095°07'0 0.0
2015-Sep-01 11:31N 29°45' W 095°07'2 1.1
2015-Sep-01 09:24N 29°46' W 095°05'0 0.0
2015-Sep-01 08:31N 29°46' W 095°05'0 0.0
2015-Sep-01 07:33N 29°46' W 095°05'0 0.0
2015-Sep-01 06:33N 29°46' W 095°05'0 0.0
2015-Sep-01 05:33N 29°46' W 095°05'0 0.0
2015-Sep-01 04:33N 29°46' W 095°05'0 0.0
2015-Sep-01 03:33N 29°46' W 095°05'0 0.0
2015-Sep-01 02:33N 29°46' W 095°05'0 0.0
2015-Sep-01 01:33N 29°46' W 095°05'0 0.0
2015-Sep-01 00:33N 29°46' W 095°05'0 0.0
2015-Aug-31 20:31N 29°46' W 095°05'1 0.5
2015-Aug-31 19:33N 29°46' W 095°05'5 4.9
2015-Aug-31 18:33N 29°42' W 095°01'6 5.6
2015-Aug-31 17:33N 29°37' W 094°58'6 6.3
2015-Aug-31 16:33N 29°32' W 094°54'7 6.6
2015-Aug-31 15:28N 29°26' W 094°50'  
2015-Aug-27 20:08N 29°29' W 094°52'4 6.5
2015-Aug-27 19:33N 29°32' W 094°54'6 6.1
2015-Aug-27 18:33N 29°38' W 094°58'6 6.1
2015-Aug-27 17:33N 29°43' W 095°01'5 4.6
2015-Aug-27 16:33N 29°45' W 095°06'5 2.5
2015-Aug-27 14:25N 29°44' W 095°12'0 0.0
2015-Aug-27 13:32N 29°44' W 095°12'0 0.0
2015-Aug-27 12:33N 29°44' W 095°12'0 0.0
2015-Aug-27 10:33N 29°44' W 095°12'0 0.0
2015-Aug-27 09:33N 29°44' W 095°12'0 0.0
2015-Aug-27 08:33N 29°44' W 095°12'0 0.0
2015-Aug-27 07:33N 29°44' W 095°12'0 0.0
2015-Aug-27 06:33N 29°44' W 095°12'0 0.0
2015-Aug-27 05:33N 29°44' W 095°12'0 0.0
2015-Aug-27 04:33N 29°44' W 095°12'0 0.0
2015-Aug-27 03:33N 29°44' W 095°12'0 0.0
2015-Aug-27 02:33N 29°44' W 095°12'0 0.0
2015-Aug-27 01:32N 29°44' W 095°12'0 0.0
2015-Aug-27 00:33N 29°44' W 095°12'0 0.0
2015-Aug-26 23:33N 29°44' W 095°12'0 0.0
2015-Aug-26 22:33N 29°44' W 095°12'0 0.0
2015-Aug-26 21:21N 29°44' W 095°12'0 0.0
2015-Aug-26 20:33N 29°44' W 095°12'0 0.0
2015-Aug-26 19:18N 29°44' W 095°12'0 0.0
2015-Aug-26 18:31N 29°44' W 095°12'0 0.0
2015-Aug-26 17:17N 29°44' W 095°12'1 0.0
2015-Aug-24 23:33N 29°45' W 095°11'5 4.9
2015-Aug-24 22:33N 29°45' W 095°06'1 1.4
2015-Aug-24 21:30N 29°46' W 095°05'1 1.0
2015-Aug-24 20:34N 29°46' W 095°05'1 0.9
2015-Aug-24 19:34N 29°46' W 095°05'0 0.0
2015-Aug-24 18:33N 29°46' W 095°05'0 0.1
2015-Aug-24 17:33N 29°47' W 095°05'0 0.0
2015-Aug-24 15:33N 29°47' W 095°05'0 0.1
2015-Aug-24 14:26N 29°46' W 095°05'0 0.0
2015-Aug-24 13:33N 29°46' W 095°05'0 0.0
2015-Aug-24 12:33N 29°46' W 095°05'0 0.0
2015-Aug-24 11:33N 29°46' W 095°05'2 2.2
2015-Aug-24 10:25N 29°45' W 095°07'0 0.0
2015-Aug-24 09:24N 29°45' W 095°07'0 0.0
2015-Aug-24 08:33N 29°45' W 095°07'0 0.0
2015-Aug-24 07:30N 29°45' W 095°07'0 0.0
2015-Aug-24 06:33N 29°45' W 095°07'0 0.0
2015-Aug-24 05:25N 29°45' W 095°07'0 0.0
2015-Aug-24 03:23N 29°45' W 095°07'0 0.0
2015-Aug-24 02:33N 29°45' W 095°07'0 0.0
2015-Aug-24 01:32N 29°45' W 095°07'2 2.5
2015-Aug-24 00:33N 29°46' W 095°05'0 0.0
2015-Aug-23 23:33N 29°46' W 095°05'0 0.0
2015-Aug-23 22:33N 29°46' W 095°05'  
Track history (hours):
 
Tides and Currents Weather Stations Pressure Air Temp Water Temp Dewpoint Dewpoint Depression Visibility Wind Speed Wind Dir Waves Ship Positions

MiSS Sarah

Owner: Higman Barge Lines, Inc, Orange, TX. More information available from US FCC via Universal Licensing System and Coast Guard Vessel Documentation Center.

Last reported at 2015-Sep-02 22:23 UTC. Time now 2015-Sep-03 08:52 UTC.
Position N 29°46' W 095°06'.

Length 24 m; draft 9 m.

Type: Towing. MMSI: 367419040.

Date/timePositionNaut miles runAvg speedWind from/ knotsBaromVisibWave heightAir tempDewpointWater temp
2015-Sep-02 22:23N 29°46' W 095°06'1 0.0
2015-Sep-02 06:05N 29°46' W 095°07'1 1.9
2015-Sep-02 05:33N 29°46' W 095°06'1 1.1
2015-Sep-02 04:33N 29°46' W 095°05'0 0.0
2015-Sep-02 03:33N 29°46' W 095°05'0 0.0
2015-Sep-02 02:33N 29°46' W 095°05'0 0.0
2015-Sep-02 01:33N 29°46' W 095°05'1 1.1
2015-Sep-02 00:29N 29°46' W 095°06'4 3.8
2015-Sep-01 23:32N 29°45' W 095°10'4 3.2
2015-Sep-01 22:24N 29°44' W 095°14'6 6.5
2015-Sep-01 21:31N 29°44' W 095°07'3 3.1
2015-Sep-01 20:33N 29°46' W 095°05'0 0.0
2015-Sep-01 19:27N 29°46' W 095°05'2 2.3
2015-Sep-01 18:32N 29°45' W 095°06'2 2.1
2015-Sep-01 17:33N 29°46' W 095°05'0 0.1
2015-Sep-01 16:33N 29°46' W 095°05'0 0.0
2015-Sep-01 15:33N 29°46' W 095°05'0 0.1
2015-Sep-01 13:28N 29°46' W 095°05'2 2.5
2015-Sep-01 12:33N 29°45' W 095°07'0 0.0
2015-Sep-01 11:31N 29°45' W 095°07'2 1.1
2015-Sep-01 09:24N 29°46' W 095°05'0 0.0
2015-Sep-01 08:31N 29°46' W 095°05'0 0.0
2015-Sep-01 07:33N 29°46' W 095°05'0 0.0
2015-Sep-01 06:33N 29°46' W 095°05'0 0.0
2015-Sep-01 05:33N 29°46' W 095°05'0 0.0
2015-Sep-01 04:33N 29°46' W 095°05'0 0.0
2015-Sep-01 03:33N 29°46' W 095°05'0 0.0
2015-Sep-01 02:33N 29°46' W 095°05'0 0.0
2015-Sep-01 01:33N 29°46' W 095°05'0 0.0
2015-Sep-01 00:33N 29°46' W 095°05'0 0.0
2015-Aug-31 20:31N 29°46' W 095°05'1 0.5
2015-Aug-31 19:33N 29°46' W 095°05'5 4.9
2015-Aug-31 18:33N 29°42' W 095°01'6 5.6
2015-Aug-31 17:33N 29°37' W 094°58'6 6.3
2015-Aug-31 16:33N 29°32' W 094°54'7 6.6
2015-Aug-31 15:28N 29°26' W 094°50'  
2015-Aug-27 20:08N 29°29' W 094°52'4 6.5
2015-Aug-27 19:33N 29°32' W 094°54'6 6.1
2015-Aug-27 18:33N 29°38' W 094°58'6 6.1
2015-Aug-27 17:33N 29°43' W 095°01'5 4.6
2015-Aug-27 16:33N 29°45' W 095°06'5 2.5
2015-Aug-27 14:25N 29°44' W 095°12'0 0.0
2015-Aug-27 13:32N 29°44' W 095°12'0 0.0
2015-Aug-27 12:33N 29°44' W 095°12'0 0.0
2015-Aug-27 10:33N 29°44' W 095°12'0 0.0
2015-Aug-27 09:33N 29°44' W 095°12'0 0.0
2015-Aug-27 08:33N 29°44' W 095°12'0 0.0
2015-Aug-27 07:33N 29°44' W 095°12'0 0.0
2015-Aug-27 06:33N 29°44' W 095°12'0 0.0
2015-Aug-27 05:33N 29°44' W 095°12'0 0.0
2015-Aug-27 04:33N 29°44' W 095°12'0 0.0
2015-Aug-27 03:33N 29°44' W 095°12'0 0.0
2015-Aug-27 02:33N 29°44' W 095°12'0 0.0
2015-Aug-27 01:32N 29°44' W 095°12'0 0.0
2015-Aug-27 00:33N 29°44' W 095°12'0 0.0
2015-Aug-26 23:33N 29°44' W 095°12'0 0.0
2015-Aug-26 22:33N 29°44' W 095°12'0 0.0
2015-Aug-26 21:21N 29°44' W 095°12'0 0.0
2015-Aug-26 20:33N 29°44' W 095°12'0 0.0
2015-Aug-26 19:18N 29°44' W 095°12'0 0.0
2015-Aug-26 18:31N 29°44' W 095°12'0 0.0
2015-Aug-26 17:17N 29°44' W 095°12'1 0.0
2015-Aug-24 23:33N 29°45' W 095°11'5 4.9
2015-Aug-24 22:33N 29°45' W 095°06'1 1.4
2015-Aug-24 21:30N 29°46' W 095°05'1 1.0
2015-Aug-24 20:34N 29°46' W 095°05'1 0.9
2015-Aug-24 19:34N 29°46' W 095°05'0 0.0
2015-Aug-24 18:33N 29°46' W 095°05'0 0.1
2015-Aug-24 17:33N 29°47' W 095°05'0 0.0
2015-Aug-24 15:33N 29°47' W 095°05'0 0.1
2015-Aug-24 14:26N 29°46' W 095°05'0 0.0
2015-Aug-24 13:33N 29°46' W 095°05'0 0.0
2015-Aug-24 12:33N 29°46' W 095°05'0 0.0
2015-Aug-24 11:33N 29°46' W 095°05'2 2.2
2015-Aug-24 10:25N 29°45' W 095°07'0 0.0
2015-Aug-24 09:24N 29°45' W 095°07'0 0.0
2015-Aug-24 08:33N 29°45' W 095°07'0 0.0
2015-Aug-24 07:30N 29°45' W 095°07'0 0.0
2015-Aug-24 06:33N 29°45' W 095°07'0 0.0
2015-Aug-24 05:25N 29°45' W 095°07'0 0.0
2015-Aug-24 03:23N 29°45' W 095°07'0 0.0
2015-Aug-24 02:33N 29°45' W 095°07'0 0.0
2015-Aug-24 01:32N 29°45' W 095°07'2 2.5
2015-Aug-24 00:33N 29°46' W 095°05'0 0.0
2015-Aug-23 23:33N 29°46' W 095°05'0 0.0
2015-Aug-23 22:33N 29°46' W 095°05'  

Dump ship's entire track history